sensor_id;sensor_type;location;lat;lon;timestamp;temperature;humidity
18266;DHT22;9259;48.194;16.322;2023-04-12T00:01:16;6.90;99.90
18266;DHT22;9259;48.194;16.322;2023-04-12T00:03:44;6.90;99.90
18266;DHT22;9259;48.194;16.322;2023-04-12T00:06:15;6.90;99.90
18266;DHT22;9259;48.194;16.322;2023-04-12T00:08:43;6.90;99.90
18266;DHT22;9259;48.194;16.322;2023-04-12T00:11:13;6.90;99.90
18266;DHT22;9259;48.194;16.322;2023-04-12T00:13:41;6.90;99.90
18266;DHT22;9259;48.194;16.322;2023-04-12T00:16:09;6.90;99.90
18266;DHT22;9259;48.194;16.322;2023-04-12T00:18:40;6.80;99.90
18266;DHT22;9259;48.194;16.322;2023-04-12T00:21:09;6.80;99.90
18266;DHT22;9259;48.194;16.322;2023-04-12T00:23:37;6.80;99.90
18266;DHT22;9259;48.194;16.322;2023-04-12T00:26:05;6.80;99.90
18266;DHT22;9259;48.194;16.322;2023-04-12T00:28:34;6.80;99.90
18266;DHT22;9259;48.194;16.322;2023-04-12T00:31:02;6.80;99.90
18266;DHT22;9259;48.194;16.322;2023-04-12T00:33:32;6.70;99.90
18266;DHT22;9259;48.194;16.322;2023-04-12T00:36:00;6.70;99.90
18266;DHT22;9259;48.194;16.322;2023-04-12T00:38:28;6.80;99.90
18266;DHT22;9259;48.194;16.322;2023-04-12T00:40:56;6.70;99.90
18266;DHT22;9259;48.194;16.322;2023-04-12T00:43:24;6.70;99.90
18266;DHT22;9259;48.194;16.322;2023-04-12T00:45:56;6.70;99.90
18266;DHT22;9259;48.194;16.322;2023-04-12T00:48:24;6.70;99.90
18266;DHT22;9259;48.194;16.322;2023-04-12T00:50:54;6.70;99.90
18266;DHT22;9259;48.194;16.322;2023-04-12T00:53:22;6.60;99.90
18266;DHT22;9259;48.194;16.322;2023-04-12T00:55:50;6.60;99.90
18266;DHT22;9259;48.194;16.322;2023-04-12T00:58:20;7.00;99.90
18266;DHT22;9259;48.194;16.322;2023-04-12T01:00:49;6.50;99.90
18266;DHT22;9259;48.194;16.322;2023-04-12T01:03:20;6.50;99.90
18266;DHT22;9259;48.194;16.322;2023-04-12T01:05:55;6.50;99.90
18266;DHT22;9259;48.194;16.322;2023-04-12T01:08:38;6.40;99.90
18266;DHT22;9259;48.194;16.322;2023-04-12T01:11:17;6.40;99.90
18266;DHT22;9259;48.194;16.322;2023-04-12T01:13:52;6.40;99.90
18266;DHT22;9259;48.194;16.322;2023-04-12T01:16:29;6.30;99.90
18266;DHT22;9259;48.194;16.322;2023-04-12T01:19:05;6.30;99.90
18266;DHT22;9259;48.194;16.322;2023-04-12T01:21:52;6.30;99.90
18266;DHT22;9259;48.194;16.322;2023-04-12T01:24:38;6.20;99.90
18266;DHT22;9259;48.194;16.322;2023-04-12T01:27:20;6.20;99.90
18266;DHT22;9259;48.194;16.322;2023-04-12T01:29:55;6.20;99.90
18266;DHT22;9259;48.194;16.322;2023-04-12T01:32:24;6.20;99.90
18266;DHT22;9259;48.194;16.322;2023-04-12T01:34:53;6.10;99.90
18266;DHT22;9259;48.194;16.322;2023-04-12T01:37:21;6.10;99.90
18266;DHT22;9259;48.194;16.322;2023-04-12T01:39:50;6.10;99.90
18266;DHT22;9259;48.194;16.322;2023-04-12T01:42:18;6.10;99.90
18266;DHT22;9259;48.194;16.322;2023-04-12T01:44:47;6.10;99.90
18266;DHT22;9259;48.194;16.322;2023-04-12T01:47:16;6.10;99.90
18266;DHT22;9259;48.194;16.322;2023-04-12T01:49:53;6.10;99.90
18266;DHT22;9259;48.194;16.322;2023-04-12T01:52:30;6.10;99.90
18266;DHT22;9259;48.194;16.322;2023-04-12T01:55:01;6.10;99.90
18266;DHT22;9259;48.194;16.322;2023-04-12T01:57:32;6.00;99.90
18266;DHT22;9259;48.194;16.322;2023-04-12T02:00:02;6.00;99.90
18266;DHT22;9259;48.194;16.322;2023-04-12T02:02:32;6.00;99.90
18266;DHT22;9259;48.194;16.322;2023-04-12T02:05:02;6.00;99.90
18266;DHT22;9259;48.194;16.322;2023-04-12T02:07:31;6.00;99.90
18266;DHT22;9259;48.194;16.322;2023-04-12T02:09:59;5.90;99.90
18266;DHT22;9259;48.194;16.322;2023-04-12T02:12:27;6.00;99.90
18266;DHT22;9259;48.194;16.322;2023-04-12T02:14:55;5.90;99.90
18266;DHT22;9259;48.194;16.322;2023-04-12T02:17:24;5.90;99.90
18266;DHT22;9259;48.194;16.322;2023-04-12T02:19:54;5.90;99.90
18266;DHT22;9259;48.194;16.322;2023-04-12T02:22:23;5.90;99.90
18266;DHT22;9259;48.194;16.322;2023-04-12T02:24:50;5.80;99.90
18266;DHT22;9259;48.194;16.322;2023-04-12T02:27:18;5.80;99.90
18266;DHT22;9259;48.194;16.322;2023-04-12T02:29:46;5.80;99.90
18266;DHT22;9259;48.194;16.322;2023-04-12T02:32:14;5.80;99.90
18266;DHT22;9259;48.194;16.322;2023-04-12T02:34:43;5.80;99.90
18266;DHT22;9259;48.194;16.322;2023-04-12T02:37:16;5.70;99.90
18266;DHT22;9259;48.194;16.322;2023-04-12T02:39:47;5.70;99.90
18266;DHT22;9259;48.194;16.322;2023-04-12T02:42:15;5.70;99.90
18266;DHT22;9259;48.194;16.322;2023-04-12T02:44:43;5.70;99.90
18266;DHT22;9259;48.194;16.322;2023-04-12T02:47:13;5.70;99.90
18266;DHT22;9259;48.194;16.322;2023-04-12T02:49:40;5.70;99.90
18266;DHT22;9259;48.194;16.322;2023-04-12T02:52:10;5.70;99.90
18266;DHT22;9259;48.194;16.322;2023-04-12T02:54:38;5.60;99.90
18266;DHT22;9259;48.194;16.322;2023-04-12T02:57:05;5.60;99.90
18266;DHT22;9259;48.194;16.322;2023-04-12T02:59:33;6.20;99.90
18266;DHT22;9259;48.194;16.322;2023-04-12T03:02:01;5.50;99.90
18266;DHT22;9259;48.194;16.322;2023-04-12T03:04:29;5.50;99.90
18266;DHT22;9259;48.194;16.322;2023-04-12T03:06:59;5.50;99.90
18266;DHT22;9259;48.194;16.322;2023-04-12T03:09:27;5.50;99.90
18266;DHT22;9259;48.194;16.322;2023-04-12T03:11:55;5.50;99.90
18266;DHT22;9259;48.194;16.322;2023-04-12T03:14:23;5.50;99.90
18266;DHT22;9259;48.194;16.322;2023-04-12T03:16:51;5.40;99.90
18266;DHT22;9259;48.194;16.322;2023-04-12T03:19:18;5.40;99.90
18266;DHT22;9259;48.194;16.322;2023-04-12T03:21:46;5.40;99.90
18266;DHT22;9259;48.194;16.322;2023-04-12T03:24:15;5.40;99.90
18266;DHT22;9259;48.194;16.322;2023-04-12T03:26:43;5.40;99.90
18266;DHT22;9259;48.194;16.322;2023-04-12T03:29:11;5.40;99.90
18266;DHT22;9259;48.194;16.322;2023-04-12T03:31:39;5.40;99.90
18266;DHT22;9259;48.194;16.322;2023-04-12T03:34:07;5.40;99.90
18266;DHT22;9259;48.194;16.322;2023-04-12T03:36:35;5.40;99.90
18266;DHT22;9259;48.194;16.322;2023-04-12T03:39:03;5.40;99.90
18266;DHT22;9259;48.194;16.322;2023-04-12T03:41:32;5.40;99.90
18266;DHT22;9259;48.194;16.322;2023-04-12T03:44:00;5.40;99.90
18266;DHT22;9259;48.194;16.322;2023-04-12T03:46:29;5.50;99.90
18266;DHT22;9259;48.194;16.322;2023-04-12T03:48:56;5.50;99.90
18266;DHT22;9259;48.194;16.322;2023-04-12T03:51:24;5.50;99.90
18266;DHT22;9259;48.194;16.322;2023-04-12T03:53:55;5.50;99.90
18266;DHT22;9259;48.194;16.322;2023-04-12T03:56:23;5.50;99.90
18266;DHT22;9259;48.194;16.322;2023-04-12T03:58:52;5.50;99.90
18266;DHT22;9259;48.194;16.322;2023-04-12T04:01:21;5.50;99.90
18266;DHT22;9259;48.194;16.322;2023-04-12T04:03:49;5.50;99.90
18266;DHT22;9259;48.194;16.322;2023-04-12T04:06:17;5.50;99.90
18266;DHT22;9259;48.194;16.322;2023-04-12T04:08:45;5.50;99.90
18266;DHT22;9259;48.194;16.322;2023-04-12T04:11:12;5.50;99.90
18266;DHT22;9259;48.194;16.322;2023-04-12T04:13:41;5.50;99.90
18266;DHT22;9259;48.194;16.322;2023-04-12T04:16:11;5.40;99.90
18266;DHT22;9259;48.194;16.322;2023-04-12T04:18:39;5.40;99.90
18266;DHT22;9259;48.194;16.322;2023-04-12T04:21:07;5.50;99.90
18266;DHT22;9259;48.194;16.322;2023-04-12T04:23:35;5.50;99.90
18266;DHT22;9259;48.194;16.322;2023-04-12T04:26:05;5.50;99.90
18266;DHT22;9259;48.194;16.322;2023-04-12T04:28:35;5.50;99.90
18266;DHT22;9259;48.194;16.322;2023-04-12T04:31:05;5.50;99.90
18266;DHT22;9259;48.194;16.322;2023-04-12T04:33:34;5.40;99.90
18266;DHT22;9259;48.194;16.322;2023-04-12T04:36:03;5.50;99.90
18266;DHT22;9259;48.194;16.322;2023-04-12T04:38:33;5.50;99.90
18266;DHT22;9259;48.194;16.322;2023-04-12T04:41:01;5.70;99.90
18266;DHT22;9259;48.194;16.322;2023-04-12T04:43:30;5.50;99.90
18266;DHT22;9259;48.194;16.322;2023-04-12T04:45:59;5.50;99.90
18266;DHT22;9259;48.194;16.322;2023-04-12T04:48:27;5.50;99.90
18266;DHT22;9259;48.194;16.322;2023-04-12T04:50:59;5.50;99.90
18266;DHT22;9259;48.194;16.322;2023-04-12T04:53:27;5.50;99.90
18266;DHT22;9259;48.194;16.322;2023-04-12T04:55:59;5.50;99.90
18266;DHT22;9259;48.194;16.322;2023-04-12T04:58:27;5.50;99.90
18266;DHT22;9259;48.194;16.322;2023-04-12T05:00:55;5.60;99.90
18266;DHT22;9259;48.194;16.322;2023-04-12T05:03:25;5.70;99.90
18266;DHT22;9259;48.194;16.322;2023-04-12T05:05:53;5.80;99.90
18266;DHT22;9259;48.194;16.322;2023-04-12T05:08:23;5.90;99.90
18266;DHT22;9259;48.194;16.322;2023-04-12T05:10:51;6.00;99.90
18266;DHT22;9259;48.194;16.322;2023-04-12T05:13:19;6.00;99.90
18266;DHT22;9259;48.194;16.322;2023-04-12T05:15:47;6.10;99.90
18266;DHT22;9259;48.194;16.322;2023-04-12T05:18:15;6.10;99.90
18266;DHT22;9259;48.194;16.322;2023-04-12T05:20:44;6.20;99.90
18266;DHT22;9259;48.194;16.322;2023-04-12T05:23:13;6.30;99.90
18266;DHT22;9259;48.194;16.322;2023-04-12T05:25:46;6.50;99.90
18266;DHT22;9259;48.194;16.322;2023-04-12T05:28:15;6.50;99.90
18266;DHT22;9259;48.194;16.322;2023-04-12T05:30:43;6.60;99.90
18266;DHT22;9259;48.194;16.322;2023-04-12T05:33:11;6.60;99.90
18266;DHT22;9259;48.194;16.322;2023-04-12T05:35:39;6.70;99.90
18266;DHT22;9259;48.194;16.322;2023-04-12T05:38:07;7.10;99.90
18266;DHT22;9259;48.194;16.322;2023-04-12T05:40:35;7.50;99.90
18266;DHT22;9259;48.194;16.322;2023-04-12T05:43:05;8.20;99.90
18266;DHT22;9259;48.194;16.322;2023-04-12T05:45:33;8.90;99.90
18266;DHT22;9259;48.194;16.322;2023-04-12T05:48:01;9.30;99.90
18266;DHT22;9259;48.194;16.322;2023-04-12T08:01:57;9.40;99.90
18266;DHT22;9259;48.194;16.322;2023-04-12T08:04:25;16.60;96.40
18266;DHT22;9259;48.194;16.322;2023-04-12T08:06:53;17.60;93.90
18266;DHT22;9259;48.194;16.322;2023-04-12T08:09:21;17.80;92.90
18266;DHT22;9259;48.194;16.322;2023-04-12T08:11:49;17.70;91.80
18266;DHT22;9259;48.194;16.322;2023-04-12T08:14:17;18.70;89.20
18266;DHT22;9259;48.194;16.322;2023-04-12T08:16:46;19.90;85.80
18266;DHT22;9259;48.194;16.322;2023-04-12T08:19:14;18.90;84.20
18266;DHT22;9259;48.194;16.322;2023-04-12T08:21:42;18.80;84.90
18266;DHT22;9259;48.194;16.322;2023-04-12T08:24:10;18.90;83.50
18266;DHT22;9259;48.194;16.322;2023-04-12T08:26:38;19.60;81.70
18266;DHT22;9259;48.194;16.322;2023-04-12T08:29:06;18.40;83.60
18266;DHT22;9259;48.194;16.322;2023-04-12T08:31:34;19.30;84.40
18266;DHT22;9259;48.194;16.322;2023-04-12T08:34:03;19.80;79.60
18266;DHT22;9259;48.194;16.322;2023-04-12T08:36:31;18.80;80.10
18266;DHT22;9259;48.194;16.322;2023-04-12T08:39:00;17.90;82.40
18266;DHT22;9259;48.194;16.322;2023-04-12T08:41:28;18.20;81.10
18266;DHT22;9259;48.194;16.322;2023-04-12T08:43:58;17.60;82.40
18266;DHT22;9259;48.194;16.322;2023-04-12T08:46:26;18.40;83.90
18266;DHT22;9259;48.194;16.322;2023-04-12T08:48:55;18.40;83.00
18266;DHT22;9259;48.194;16.322;2023-04-12T08:51:25;18.20;82.80
18266;DHT22;9259;48.194;16.322;2023-04-12T08:53:53;18.80;79.00
18266;DHT22;9259;48.194;16.322;2023-04-12T08:56:21;18.40;78.50
18266;DHT22;9259;48.194;16.322;2023-04-12T08:58:50;18.40;78.60
18266;DHT22;9259;48.194;16.322;2023-04-12T09:01:21;18.50;77.70
18266;DHT22;9259;48.194;16.322;2023-04-12T09:03:48;18.00;78.00
18266;DHT22;9259;48.194;16.322;2023-04-12T09:06:16;18.00;78.60
18266;DHT22;9259;48.194;16.322;2023-04-12T09:08:52;17.90;77.50
18266;DHT22;9259;48.194;16.322;2023-04-12T09:11:22;17.60;76.50
18266;DHT22;9259;48.194;16.322;2023-04-12T09:13:52;18.40;77.00
18266;DHT22;9259;48.194;16.322;2023-04-12T09:16:34;18.90;76.50
18266;DHT22;9259;48.194;16.322;2023-04-12T09:19:03;17.80;77.80
18266;DHT22;9259;48.194;16.322;2023-04-12T09:21:32;17.60;76.60
18266;DHT22;9259;48.194;16.322;2023-04-12T09:24:03;18.70;75.10
18266;DHT22;9259;48.194;16.322;2023-04-12T09:26:34;18.10;75.60
18266;DHT22;9259;48.194;16.322;2023-04-12T09:29:02;18.20;77.70
18266;DHT22;9259;48.194;16.322;2023-04-12T09:31:31;18.60;76.30
18266;DHT22;9259;48.194;16.322;2023-04-12T09:34:06;18.50;76.90
18266;DHT22;9259;48.194;16.322;2023-04-12T09:36:38;18.30;77.10
18266;DHT22;9259;48.194;16.322;2023-04-12T09:39:07;18.20;77.50
18266;DHT22;9259;48.194;16.322;2023-04-12T09:41:35;18.40;77.30
18266;DHT22;9259;48.194;16.322;2023-04-12T09:44:03;19.00;75.60
18266;DHT22;9259;48.194;16.322;2023-04-12T09:46:31;18.50;76.10
18266;DHT22;9259;48.194;16.322;2023-04-12T09:49:00;18.90;73.70
18266;DHT22;9259;48.194;16.322;2023-04-12T09:51:32;18.70;75.20
18266;DHT22;9259;48.194;16.322;2023-04-12T09:54:03;17.90;75.30
18266;DHT22;9259;48.194;16.322;2023-04-12T09:56:36;18.20;74.40
18266;DHT22;9259;48.194;16.322;2023-04-12T09:59:06;18.10;76.30
18266;DHT22;9259;48.194;16.322;2023-04-12T10:04:06;17.40;77.90
18266;DHT22;9259;48.194;16.322;2023-04-12T10:06:34;16.00;80.20
18266;DHT22;9259;48.194;16.322;2023-04-12T10:09:03;16.00;80.00
18266;DHT22;9259;48.194;16.322;2023-04-12T10:11:32;16.00;78.40
18266;DHT22;9259;48.194;16.322;2023-04-12T10:14:02;16.20;76.70
18266;DHT22;9259;48.194;16.322;2023-04-12T10:16:33;15.90;77.30
18266;DHT22;9259;48.194;16.322;2023-04-12T10:19:02;16.00;78.10
18266;DHT22;9259;48.194;16.322;2023-04-12T10:21:30;15.70;78.20
18266;DHT22;9259;48.194;16.322;2023-04-12T10:23:58;15.70;78.90
18266;DHT22;9259;48.194;16.322;2023-04-12T10:26:27;15.70;79.20
18266;DHT22;9259;48.194;16.322;2023-04-12T10:29:26;16.00;79.00
18266;DHT22;9259;48.194;16.322;2023-04-12T10:31:56;16.10;77.80
18266;DHT22;9259;48.194;16.322;2023-04-12T10:34:29;16.20;78.40
18266;DHT22;9259;48.194;16.322;2023-04-12T10:36:58;16.20;78.20
18266;DHT22;9259;48.194;16.322;2023-04-12T10:39:37;15.80;78.50
18266;DHT22;9259;48.194;16.322;2023-04-12T10:42:15;15.00;81.50
18266;DHT22;9259;48.194;16.322;2023-04-12T10:44:46;15.20;81.30
18266;DHT22;9259;48.194;16.322;2023-04-12T10:47:14;15.80;79.20
18266;DHT22;9259;48.194;16.322;2023-04-12T10:53:21;15.90;80.80
18266;DHT22;9259;48.194;16.322;2023-04-12T10:55:52;16.50;80.40
18266;DHT22;9259;48.194;16.322;2023-04-12T11:01:29;16.70;77.20
18266;DHT22;9259;48.194;16.322;2023-04-12T11:04:11;16.60;77.50
18266;DHT22;9259;48.194;16.322;2023-04-12T11:06:55;16.40;78.60
18266;DHT22;9259;48.194;16.322;2023-04-12T11:09:25;16.50;78.40
18266;DHT22;9259;48.194;16.322;2023-04-12T11:11:58;16.90;77.50
18266;DHT22;9259;48.194;16.322;2023-04-12T11:14:43;17.70;75.60
18266;DHT22;9259;48.194;16.322;2023-04-12T11:17:22;18.40;73.90
18266;DHT22;9259;48.194;16.322;2023-04-12T11:22:26;19.00;73.20
18266;DHT22;9259;48.194;16.322;2023-04-12T11:24:56;19.30;70.50
18266;DHT22;9259;48.194;16.322;2023-04-12T11:27:27;19.40;71.20
18266;DHT22;9259;48.194;16.322;2023-04-12T11:29:58;19.70;71.00
18266;DHT22;9259;48.194;16.322;2023-04-12T11:32:29;19.90;68.70
18266;DHT22;9259;48.194;16.322;2023-04-12T11:34:57;19.00;70.10
18266;DHT22;9259;48.194;16.322;2023-04-12T11:37:25;19.20;69.60
18266;DHT22;9259;48.194;16.322;2023-04-12T11:39:56;19.40;68.40
18266;DHT22;9259;48.194;16.322;2023-04-12T11:42:26;18.70;69.50
18266;DHT22;9259;48.194;16.322;2023-04-12T11:44:55;19.00;68.80
18266;DHT22;9259;48.194;16.322;2023-04-12T11:47:24;18.80;68.90
18266;DHT22;9259;48.194;16.322;2023-04-12T11:49:55;18.50;69.50
18266;DHT22;9259;48.194;16.322;2023-04-12T11:52:27;18.40;70.30
18266;DHT22;9259;48.194;16.322;2023-04-12T11:54:59;19.20;68.70
18266;DHT22;9259;48.194;16.322;2023-04-12T12:12:22;19.80;67.80
18266;DHT22;9259;48.194;16.322;2023-04-12T12:14:50;18.70;68.20
18266;DHT22;9259;48.194;16.322;2023-04-12T12:17:18;18.90;67.90
18266;DHT22;9259;48.194;16.322;2023-04-12T13:05:20;18.90;67.40
18266;DHT22;9259;48.194;16.322;2023-04-12T13:07:48;16.10;73.00
18266;DHT22;9259;48.194;16.322;2023-04-12T13:10:17;15.20;74.60
18266;DHT22;9259;48.194;16.322;2023-04-12T13:12:47;15.40;75.70
18266;DHT22;9259;48.194;16.322;2023-04-12T13:15:14;15.60;74.60
18266;DHT22;9259;48.194;16.322;2023-04-12T13:17:42;15.70;73.90
18266;DHT22;9259;48.194;16.322;2023-04-12T13:20:10;15.70;73.60
18266;DHT22;9259;48.194;16.322;2023-04-12T13:22:38;15.80;73.80
18266;DHT22;9259;48.194;16.322;2023-04-12T13:25:07;15.70;73.80
18266;DHT22;9259;48.194;16.322;2023-04-12T13:27:37;15.50;75.00
18266;DHT22;9259;48.194;16.322;2023-04-12T13:30:06;15.50;74.20
18266;DHT22;9259;48.194;16.322;2023-04-12T13:32:35;15.70;74.00
18266;DHT22;9259;48.194;16.322;2023-04-12T13:35:03;15.70;74.70
18266;DHT22;9259;48.194;16.322;2023-04-12T13:37:32;15.40;75.20
18266;DHT22;9259;48.194;16.322;2023-04-12T13:40:00;15.30;76.00
18266;DHT22;9259;48.194;16.322;2023-04-12T13:42:28;15.20;75.50
18266;DHT22;9259;48.194;16.322;2023-04-12T13:44:57;15.10;75.80
18266;DHT22;9259;48.194;16.322;2023-04-12T13:47:26;15.20;76.60
18266;DHT22;9259;48.194;16.322;2023-04-12T13:49:54;15.40;76.70
18266;DHT22;9259;48.194;16.322;2023-04-12T13:52:22;15.50;76.30
18266;DHT22;9259;48.194;16.322;2023-04-12T13:54:50;15.50;75.70
18266;DHT22;9259;48.194;16.322;2023-04-12T13:57:18;15.30;76.00
18266;DHT22;9259;48.194;16.322;2023-04-12T13:59:46;15.20;76.60
18266;DHT22;9259;48.194;16.322;2023-04-12T14:02:15;15.20;76.50
18266;DHT22;9259;48.194;16.322;2023-04-12T14:04:49;15.00;76.70
18266;DHT22;9259;48.194;16.322;2023-04-12T14:07:18;15.00;77.20
18266;DHT22;9259;48.194;16.322;2023-04-12T14:09:46;14.90;77.90
18266;DHT22;9259;48.194;16.322;2023-04-12T14:12:14;14.90;77.30
18266;DHT22;9259;48.194;16.322;2023-04-12T14:14:42;14.70;77.90
18266;DHT22;9259;48.194;16.322;2023-04-12T14:17:10;14.70;78.10
18266;DHT22;9259;48.194;16.322;2023-04-12T14:19:39;14.60;78.50
18266;DHT22;9259;48.194;16.322;2023-04-12T14:22:07;14.60;78.60
18266;DHT22;9259;48.194;16.322;2023-04-12T14:24:35;14.60;78.70
18266;DHT22;9259;48.194;16.322;2023-04-12T14:27:04;14.50;79.50
18266;DHT22;9259;48.194;16.322;2023-04-12T14:29:33;14.50;79.10
18266;DHT22;9259;48.194;16.322;2023-04-12T14:32:01;14.50;80.00
18266;DHT22;9259;48.194;16.322;2023-04-12T14:34:28;14.70;79.60
18266;DHT22;9259;48.194;16.322;2023-04-12T14:36:58;14.80;79.60
18266;DHT22;9259;48.194;16.322;2023-04-12T14:39:26;14.80;80.20
18266;DHT22;9259;48.194;16.322;2023-04-12T14:41:56;14.80;80.70
18266;DHT22;9259;48.194;16.322;2023-04-12T14:44:23;14.80;80.80
18266;DHT22;9259;48.194;16.322;2023-04-12T14:46:52;14.70;81.60
18266;DHT22;9259;48.194;16.322;2023-04-12T14:49:20;14.60;82.60
18266;DHT22;9259;48.194;16.322;2023-04-12T14:51:48;14.60;83.70
18266;DHT22;9259;48.194;16.322;2023-04-12T14:54:18;14.70;84.20
18266;DHT22;9259;48.194;16.322;2023-04-12T14:56:46;14.80;84.80
18266;DHT22;9259;48.194;16.322;2023-04-12T14:59:16;14.60;85.40
18266;DHT22;9259;48.194;16.322;2023-04-12T15:01:44;14.60;85.50
18266;DHT22;9259;48.194;16.322;2023-04-12T15:04:12;14.70;86.20
18266;DHT22;9259;48.194;16.322;2023-04-12T15:06:40;14.90;84.70
18266;DHT22;9259;48.194;16.322;2023-04-12T15:09:12;14.90;84.60
18266;DHT22;9259;48.194;16.322;2023-04-12T15:11:42;14.80;84.10
18266;DHT22;9259;48.194;16.322;2023-04-12T15:14:11;14.90;84.10
18266;DHT22;9259;48.194;16.322;2023-04-12T15:16:43;14.90;84.00
18266;DHT22;9259;48.194;16.322;2023-04-12T15:19:14;15.50;83.00
18266;DHT22;9259;48.194;16.322;2023-04-12T15:21:43;15.10;81.90
18266;DHT22;9259;48.194;16.322;2023-04-12T15:24:12;15.20;83.30
18266;DHT22;9259;48.194;16.322;2023-04-12T15:26:40;15.20;81.90
18266;DHT22;9259;48.194;16.322;2023-04-12T15:29:10;15.40;81.90
18266;DHT22;9259;48.194;16.322;2023-04-12T15:31:38;15.30;80.80
18266;DHT22;9259;48.194;16.322;2023-04-12T15:34:06;15.40;80.60
18266;DHT22;9259;48.194;16.322;2023-04-12T15:36:35;15.50;80.30
18266;DHT22;9259;48.194;16.322;2023-04-12T15:39:03;15.80;79.80
18266;DHT22;9259;48.194;16.322;2023-04-12T15:41:36;15.30;80.60
18266;DHT22;9259;48.194;16.322;2023-04-12T15:44:08;15.10;81.10
18266;DHT22;9259;48.194;16.322;2023-04-12T15:46:38;14.90;81.50
18266;DHT22;9259;48.194;16.322;2023-04-12T15:49:07;14.70;82.70
18266;DHT22;9259;48.194;16.322;2023-04-12T15:51:36;14.80;82.80
18266;DHT22;9259;48.194;16.322;2023-04-12T15:54:04;14.80;83.20
18266;DHT22;9259;48.194;16.322;2023-04-12T15:56:32;14.80;83.70
18266;DHT22;9259;48.194;16.322;2023-04-12T15:59:00;14.60;84.20
18266;DHT22;9259;48.194;16.322;2023-04-12T16:01:30;14.50;84.70
18266;DHT22;9259;48.194;16.322;2023-04-12T16:03:58;14.40;85.20
18266;DHT22;9259;48.194;16.322;2023-04-12T16:06:26;14.50;85.90
18266;DHT22;9259;48.194;16.322;2023-04-12T16:08:55;14.50;85.90
18266;DHT22;9259;48.194;16.322;2023-04-12T16:11:23;14.40;86.50
18266;DHT22;9259;48.194;16.322;2023-04-12T16:13:52;14.40;86.80
18266;DHT22;9259;48.194;16.322;2023-04-12T16:16:21;14.40;86.70
18266;DHT22;9259;48.194;16.322;2023-04-12T16:18:51;14.40;87.00
18266;DHT22;9259;48.194;16.322;2023-04-12T16:21:21;14.50;87.70
18266;DHT22;9259;48.194;16.322;2023-04-12T16:23:51;14.40;87.40
18266;DHT22;9259;48.194;16.322;2023-04-12T16:26:20;14.50;88.00
18266;DHT22;9259;48.194;16.322;2023-04-12T16:28:48;14.50;88.70
18266;DHT22;9259;48.194;16.322;2023-04-12T16:31:18;14.40;89.10
18266;DHT22;9259;48.194;16.322;2023-04-12T16:33:47;14.50;89.00
18266;DHT22;9259;48.194;16.322;2023-04-12T16:36:17;14.40;89.40
18266;DHT22;9259;48.194;16.322;2023-04-12T16:38:48;14.30;89.60
18266;DHT22;9259;48.194;16.322;2023-04-12T16:41:17;14.30;90.00
18266;DHT22;9259;48.194;16.322;2023-04-12T16:43:45;14.30;90.10
18266;DHT22;9259;48.194;16.322;2023-04-12T16:46:18;14.20;90.30
18266;DHT22;9259;48.194;16.322;2023-04-12T16:48:46;14.30;90.30
18266;DHT22;9259;48.194;16.322;2023-04-12T16:51:16;14.30;90.40
18266;DHT22;9259;48.194;16.322;2023-04-12T16:53:44;14.30;90.50
18266;DHT22;9259;48.194;16.322;2023-04-12T16:56:12;14.40;90.70
18266;DHT22;9259;48.194;16.322;2023-04-12T16:58:41;14.40;90.50
18266;DHT22;9259;48.194;16.322;2023-04-12T17:01:10;14.40;90.70
18266;DHT22;9259;48.194;16.322;2023-04-12T17:03:41;14.20;91.00
18266;DHT22;9259;48.194;16.322;2023-04-12T17:06:10;14.10;91.10
18266;DHT22;9259;48.194;16.322;2023-04-12T17:08:39;14.10;91.00
18266;DHT22;9259;48.194;16.322;2023-04-12T17:11:07;14.10;91.20
18266;DHT22;9259;48.194;16.322;2023-04-12T17:13:35;14.10;91.30
18266;DHT22;9259;48.194;16.322;2023-04-12T17:16:04;14.00;91.60
18266;DHT22;9259;48.194;16.322;2023-04-12T17:18:34;14.00;91.50
18266;DHT22;9259;48.194;16.322;2023-04-12T17:21:05;14.00;91.60
18266;DHT22;9259;48.194;16.322;2023-04-12T17:23:35;13.90;91.80
18266;DHT22;9259;48.194;16.322;2023-04-12T17:26:06;13.90;91.90
18266;DHT22;9259;48.194;16.322;2023-04-12T17:28:35;13.90;91.90
18266;DHT22;9259;48.194;16.322;2023-04-12T17:31:06;13.90;92.00
18266;DHT22;9259;48.194;16.322;2023-04-12T17:33:34;13.90;92.20
18266;DHT22;9259;48.194;16.322;2023-04-12T17:36:03;13.90;92.30
18266;DHT22;9259;48.194;16.322;2023-04-12T17:38:31;13.80;92.40
18266;DHT22;9259;48.194;16.322;2023-04-12T17:40:59;13.70;92.50
18266;DHT22;9259;48.194;16.322;2023-04-12T17:43:29;13.70;92.60
18266;DHT22;9259;48.194;16.322;2023-04-12T17:45:57;13.60;92.70
18266;DHT22;9259;48.194;16.322;2023-04-12T17:48:28;13.70;92.90
18266;DHT22;9259;48.194;16.322;2023-04-12T17:50:58;13.70;92.80
18266;DHT22;9259;48.194;16.322;2023-04-12T17:53:28;13.70;93.00
18266;DHT22;9259;48.194;16.322;2023-04-12T17:55:56;13.70;93.00
18266;DHT22;9259;48.194;16.322;2023-04-12T17:58:25;13.60;93.20
18266;DHT22;9259;48.194;16.322;2023-04-12T18:00:54;13.50;93.40
18266;DHT22;9259;48.194;16.322;2023-04-12T18:03:23;13.50;93.60
18266;DHT22;9259;48.194;16.322;2023-04-12T18:05:53;13.40;93.80
18266;DHT22;9259;48.194;16.322;2023-04-12T18:08:21;12.90;93.70
18266;DHT22;9259;48.194;16.322;2023-04-12T18:10:50;13.50;93.90
18266;DHT22;9259;48.194;16.322;2023-04-12T18:13:18;13.40;94.10
18266;DHT22;9259;48.194;16.322;2023-04-12T18:15:48;13.30;94.20
18266;DHT22;9259;48.194;16.322;2023-04-12T18:18:17;13.30;94.70
18266;DHT22;9259;48.194;16.322;2023-04-12T18:20:45;13.30;94.50
18266;DHT22;9259;48.194;16.322;2023-04-12T18:23:14;13.20;94.60
18266;DHT22;9259;48.194;16.322;2023-04-12T18:25:42;13.20;94.80
18266;DHT22;9259;48.194;16.322;2023-04-12T18:28:11;13.10;94.90
18266;DHT22;9259;48.194;16.322;2023-04-12T18:30:39;13.10;95.00
18266;DHT22;9259;48.194;16.322;2023-04-12T18:33:08;13.10;95.30
18266;DHT22;9259;48.194;16.322;2023-04-12T18:35:39;13.10;95.30
18266;DHT22;9259;48.194;16.322;2023-04-12T18:38:07;13.10;95.40
18266;DHT22;9259;48.194;16.322;2023-04-12T18:40:36;13.10;95.60
18266;DHT22;9259;48.194;16.322;2023-04-12T18:43:05;13.10;95.80
18266;DHT22;9259;48.194;16.322;2023-04-12T18:45:39;13.20;97.00
18266;DHT22;9259;48.194;16.322;2023-04-12T18:48:08;13.20;97.00
18266;DHT22;9259;48.194;16.322;2023-04-12T18:50:39;13.30;96.30
18266;DHT22;9259;48.194;16.322;2023-04-12T18:53:08;13.20;96.00
18266;DHT22;9259;48.194;16.322;2023-04-12T18:55:36;13.10;96.20
18266;DHT22;9259;48.194;16.322;2023-04-12T18:58:09;13.10;96.50
18266;DHT22;9259;48.194;16.322;2023-04-12T19:00:38;13.00;96.70
18266;DHT22;9259;48.194;16.322;2023-04-12T19:03:09;13.00;96.80
18266;DHT22;9259;48.194;16.322;2023-04-12T19:05:42;13.00;96.90
18266;DHT22;9259;48.194;16.322;2023-04-12T19:08:16;13.00;97.10
18266;DHT22;9259;48.194;16.322;2023-04-12T19:10:45;12.90;97.30
18266;DHT22;9259;48.194;16.322;2023-04-12T19:13:14;13.00;97.40
18266;DHT22;9259;48.194;16.322;2023-04-12T19:15:43;12.90;97.70